Time;durP1;ratioP1;P1;durP2;ratioP2;P2;SDS_P1;SDS_P2;PMS_P1;PMS_P2;Temp;Humidity;BMP_temperature;BMP_pressure;BME280_temperature;BME280_humidity;BME280_pressure;Samples;Min_cycle;Max_cycle;Signal;HPM_P1;HPM_P2
2022/08/30 00:01:01;;;;;;;0.52;0.50;;;15.70;99.90;;;;;;4957956;28;20192;-89
2022/08/30 00:01:57;;;;;;;0.73;0.60;;;15.60;99.90;;;;;;4979512;28;20192;-89
2022/08/30 00:04:23;;;;;;;1.15;0.60;;;15.50;99.90;;;;;;4962658;28;20196;-88
2022/08/30 00:06:49;;;;;;;0.90;0.70;;;15.50;99.90;;;;;;4974881;28;20195;-89
2022/08/30 00:09:15;;;;;;;0.65;0.65;;;15.50;99.90;;;;;;4973092;28;20340;-88
2022/08/30 00:11:41;;;;;;;0.65;0.50;;;15.50;99.90;;;;;;4962099;28;20656;-90
2022/08/30 00:14:07;;;;;;;0.75;0.52;;;15.50;99.90;;;;;;4957890;28;20195;-89
2022/08/30 00:16:32;;;;;;;1.60;0.60;;;15.40;99.90;;;;;;4961698;28;20185;-91
2022/08/30 00:19:00;;;;;;;2.05;0.70;;;15.40;99.90;;;;;;4965145;28;20222;-90
2022/08/30 00:21:26;;;;;;;2.67;0.65;;;15.40;99.90;;;;;;4958721;28;20209;-90
2022/08/30 00:23:52;;;;;;;1.23;0.50;;;15.40;99.90;;;;;;4965618;28;20563;-88
2022/08/30 00:26:18;;;;;;;1.70;0.60;;;15.30;99.90;;;;;;4964709;28;20220;-89
2022/08/30 00:28:44;;;;;;;0.88;0.57;;;15.30;99.90;;;;;;4974497;28;20231;-91
2022/08/30 00:31:11;;;;;;;0.50;0.50;;;15.20;99.90;;;;;;4963162;28;20212;-88
2022/08/30 00:33:38;;;;;;;0.98;0.65;;;15.20;99.90;;;;;;4978472;28;20196;-89
2022/08/30 00:36:05;;;;;;;0.85;0.50;;;15.20;99.90;;;;;;4968076;28;20295;-88
2022/08/30 00:38:31;;;;;;;0.80;0.60;;;15.20;99.90;;;;;;4974694;28;20187;-87
2022/08/30 00:40:58;;;;;;;2.08;0.63;;;15.20;99.90;;;;;;4965417;28;20220;-87
2022/08/30 00:43:32;;;;;;;0.77;0.60;;;15.20;99.90;;;;;;4958042;28;20331;-88
2022/08/30 00:45:58;;;;;;;0.70;0.50;;;15.20;99.90;;;;;;4962169;28;20214;-89
2022/08/30 00:48:24;;;;;;;0.60;0.60;;;15.20;99.90;;;;;;4957442;28;20565;-88
2022/08/30 00:51:00;;;;;;;2.55;0.70;;;15.30;99.90;;;;;;4962618;28;20203;-88
2022/08/30 00:53:32;;;;;;;3.40;1.08;;;15.30;99.90;;;;;;4955398;28;20204;-87
2022/08/30 00:55:59;;;;;;;3.28;1.52;;;15.30;99.90;;;;;;4974330;28;20187;-89
2022/08/30 00:58:37;;;;;;;2.80;1.77;;;15.30;99.90;;;;;;4957246;28;20196;-89
2022/08/30 01:01:07;;;;;;;3.05;2.05;;;15.30;99.90;;;;;;4956657;28;20230;-89
2022/08/30 01:03:35;;;;;;;3.58;2.38;;;15.30;99.90;;;;;;4975600;28;20184;-90
2022/08/30 01:06:02;;;;;;;3.17;2.50;;;15.30;99.90;;;;;;4962387;28;20658;-90
2022/08/30 01:08:28;;;;;;;3.78;2.67;;;15.30;99.90;;;;;;4959354;28;20208;-90
2022/08/30 01:10:55;;;;;;;3.67;2.50;;;15.40;99.90;;;;;;4965349;28;20208;-89
2022/08/30 01:13:21;;;;;;;3.47;3.00;;;15.30;99.90;;;;;;4982461;28;20232;-88
2022/08/30 01:15:49;;;;;;;6.10;2.70;;;15.30;99.90;;;;;;4956724;28;20243;-89
2022/08/30 01:18:17;;;;;;;3.58;2.65;;;15.30;99.90;;;;;;4960449;28;20192;-89
2022/08/30 01:20:53;;;;;;;2.67;2.45;;;15.20;99.90;;;;;;4972636;28;20219;-90
2022/08/30 01:23:21;;;;;;;2.58;1.90;;;15.10;99.90;;;;;;4956399;28;20198;-89
2022/08/30 01:25:49;;;;;;;2.58;2.38;;;15.10;99.90;;;;;;4956889;28;20195;-87
2022/08/30 01:28:21;;;;;;;2.55;2.30;;;15.00;99.90;;;;;;4972968;28;20239;-90
2022/08/30 01:30:47;;;;;;;3.58;2.50;;;15.00;99.90;;;;;;4970670;28;20207;-89
2022/08/30 01:33:14;;;;;;;2.63;2.33;;;15.00;99.90;;;;;;4956671;28;20192;-88
2022/08/30 01:35:55;;;;;;;2.88;1.90;;;15.00;99.90;;;;;;4969055;28;20232;-88
2022/08/30 01:38:28;;;;;;;9.05;2.15;;;15.00;99.90;;;;;;4957533;28;20724;-88
2022/08/30 01:41:12;;;;;;;2.60;1.90;;;15.00;99.90;;;;;;4953194;28;20222;-88
2022/08/30 01:43:38;;;;;;;2.35;2.15;;;15.00;99.90;;;;;;4944188;28;20181;-89
2022/08/30 01:46:04;;;;;;;2.13;1.92;;;14.90;99.90;;;;;;4952803;29;20193;-88
2022/08/30 01:48:30;;;;;;;2.47;2.28;;;14.90;99.90;;;;;;4962924;28;20692;-90
2022/08/30 01:50:57;;;;;;;4.07;2.00;;;14.90;99.90;;;;;;4963963;28;20209;-89
2022/08/30 01:53:25;;;;;;;3.72;1.80;;;14.90;99.90;;;;;;4952673;28;20662;-88
2022/08/30 01:55:51;;;;;;;1.88;1.77;;;14.90;99.90;;;;;;4959837;28;20549;-90
2022/08/30 01:58:17;;;;;;;2.47;2.28;;;14.80;99.90;;;;;;4963305;28;20196;-91
2022/08/30 02:00:43;;;;;;;2.50;2.30;;;14.80;99.90;;;;;;4971706;28;20369;-90
2022/08/30 02:03:09;;;;;;;6.30;2.60;;;14.80;99.90;;;;;;4952659;28;20191;-88
2022/08/30 02:05:34;;;;;;;2.92;2.00;;;14.80;99.90;;;;;;4969995;28;20211;-89
2022/08/30 02:08:00;;;;;;;2.50;2.28;;;14.80;99.90;;;;;;4953850;28;20259;-90
2022/08/30 02:10:27;;;;;;;5.38;2.67;;;14.80;99.90;;;;;;4952744;28;20231;-89
2022/08/30 02:12:53;;;;;;;6.68;3.03;;;14.80;99.90;;;;;;4952446;28;20217;-88
2022/08/30 02:15:19;;;;;;;2.50;2.30;;;14.80;99.90;;;;;;4952686;28;20223;-88
2022/08/30 02:17:45;;;;;;;2.90;2.70;;;14.80;99.90;;;;;;5346450;23;20283;-91
2022/08/30 02:20:11;;;;;;;2.67;2.47;;;14.90;99.90;;;;;;4981306;28;20219;-88
2022/08/30 02:22:39;;;;;;;2.70;2.50;;;14.90;99.90;;;;;;4972119;28;20575;-89
2022/08/30 02:25:06;;;;;;;5.05;2.90;;;14.80;99.90;;;;;;4979980;28;20187;-89
2022/08/30 02:27:32;;;;;;;5.82;3.00;;;14.80;99.90;;;;;;4971608;28;20180;-87
2022/08/30 02:29:59;;;;;;;2.72;2.53;;;14.90;99.90;;;;;;4971814;28;20223;-92
2022/08/30 02:32:25;;;;;;;3.05;2.78;;;14.90;99.90;;;;;;4971756;28;20185;-88
2022/08/30 02:34:51;;;;;;;10.45;2.90;;;14.80;99.90;;;;;;4971672;28;20180;-90
2022/08/30 02:37:17;;;;;;;8.23;3.15;;;14.80;99.90;;;;;;4971446;28;20556;-87
2022/08/30 02:39:43;;;;;;;6.18;3.17;;;14.80;99.90;;;;;;4971630;28;20227;-87
2022/08/30 02:42:09;;;;;;;3.25;2.83;;;14.80;99.90;;;;;;4974473;28;20184;-90
2022/08/30 02:44:34;;;;;;;3.78;2.90;;;14.80;99.90;;;;;;4975040;28;20184;-88
2022/08/30 02:47:00;;;;;;;2.95;2.70;;;14.80;99.90;;;;;;4981525;28;20185;-88
2022/08/30 02:49:26;;;;;;;3.22;2.70;;;14.80;99.90;;;;;;4975560;28;20208;-89
2022/08/30 02:51:52;;;;;;;12.25;3.03;;;14.80;99.90;;;;;;4974817;28;20181;-90
2022/08/30 02:54:21;;;;;;;3.30;3.00;;;14.80;99.90;;;;;;4976353;28;20243;-90
2022/08/30 02:56:48;;;;;;;2.90;2.70;;;14.80;99.90;;;;;;4975442;28;20235;-87
2022/08/30 02:59:15;;;;;;;10.73;2.90;;;14.80;99.90;;;;;;4976684;28;20633;-90
2022/08/30 03:01:42;;;;;;;4.25;3.17;;;14.70;99.90;;;;;;4975351;28;20250;-88
2022/08/30 03:04:08;;;;;;;18.13;4.25;;;14.70;99.90;;;;;;4974823;28;20192;-88
2022/08/30 03:06:35;;;;;;;4.13;3.10;;;14.70;99.90;;;;;;4976258;28;20188;-89
2022/08/30 03:09:02;;;;;;;4.45;3.17;;;14.80;99.90;;;;;;4975085;28;20569;-89
2022/08/30 03:11:28;;;;;;;7.25;3.55;;;14.70;99.90;;;;;;4974545;28;20291;-89
2022/08/30 03:13:54;;;;;;;5.93;3.17;;;14.70;99.90;;;;;;4974641;28;20592;-89
2022/08/30 03:16:21;;;;;;;9.18;3.35;;;14.70;99.90;;;;;;4975171;28;20181;-86
2022/08/30 03:18:47;;;;;;;4.15;3.58;;;14.70;99.90;;;;;;4973932;28;20224;-87
2022/08/30 03:21:15;;;;;;;6.32;3.75;;;14.60;99.90;;;;;;4975680;28;20212;-90
2022/08/30 03:23:42;;;;;;;4.18;3.78;;;14.60;99.90;;;;;;4974565;28;20215;-88
2022/08/30 03:26:11;;;;;;;5.60;4.00;;;14.70;99.90;;;;;;4974496;28;20188;-88
2022/08/30 03:28:37;;;;;;;3.50;3.20;;;14.70;99.90;;;;;;4974350;28;20211;-88
2022/08/30 03:31:03;;;;;;;4.10;3.28;;;14.70;99.90;;;;;;4974330;28;20200;-87
2022/08/30 03:33:29;;;;;;;4.03;3.33;;;14.70;99.90;;;;;;4976684;28;20199;-87
2022/08/30 03:35:55;;;;;;;5.43;4.15;;;14.80;99.90;;;;;;4974467;28;20188;-87
2022/08/30 03:38:21;;;;;;;4.85;3.90;;;14.80;99.90;;;;;;4967686;28;20180;-88
2022/08/30 03:40:47;;;;;;;4.15;3.75;;;14.80;99.90;;;;;;4974404;28;20546;-90
2022/08/30 03:43:13;;;;;;;6.00;4.00;;;14.70;99.90;;;;;;4974148;28;20272;-89
2022/08/30 03:45:39;;;;;;;9.68;4.28;;;14.80;99.90;;;;;;4977525;28;20612;-89
2022/08/30 03:48:04;;;;;;;10.93;4.07;;;14.80;99.90;;;;;;4974172;28;20639;-88
2022/08/30 03:50:31;;;;;;;4.47;4.07;;;14.80;99.90;;;;;;4977314;28;20569;-88
2022/08/30 03:53:00;;;;;;;4.30;3.88;;;14.70;99.90;;;;;;4973316;28;20315;-88
2022/08/30 03:55:28;;;;;;;6.57;4.20;;;14.80;99.90;;;;;;4975368;28;20184;-88
2022/08/30 03:57:55;;;;;;;4.75;4.25;;;14.80;99.90;;;;;;4974232;28;20176;-91
2022/08/30 04:00:21;;;;;;;4.18;3.50;;;14.80;99.90;;;;;;4973341;28;20196;-89
2022/08/30 04:02:46;;;;;;;3.80;3.50;;;14.80;99.90;;;;;;4973641;28;20275;-89
2022/08/30 04:05:13;;;;;;;4.68;3.97;;;14.80;99.90;;;;;;4974810;28;20802;-88
2022/08/30 04:07:39;;;;;;;4.10;3.70;;;14.80;99.90;;;;;;4973846;28;20264;-89
2022/08/30 04:10:07;;;;;;;4.70;4.15;;;14.80;99.90;;;;;;4973915;28;20227;-89
2022/08/30 04:12:33;;;;;;;3.83;3.42;;;14.80;99.90;;;;;;4973088;28;20185;-90
2022/08/30 04:14:58;;;;;;;5.35;4.35;;;14.80;99.90;;;;;;4975376;28;20185;-89
2022/08/30 04:17:24;;;;;;;4.85;4.25;;;14.80;99.90;;;;;;4973634;28;20239;-90
2022/08/30 04:19:50;;;;;;;4.85;4.13;;;14.80;99.90;;;;;;4973790;28;20706;-90
2022/08/30 04:22:16;;;;;;;4.75;4.18;;;14.80;99.90;;;;;;4974227;28;20660;-90
2022/08/30 04:24:42;;;;;;;3.95;3.55;;;14.80;99.90;;;;;;4974030;28;20679;-89
2022/08/30 04:27:08;;;;;;;4.63;4.07;;;14.80;99.90;;;;;;4978808;28;20189;-87
2022/08/30 04:29:38;;;;;;;5.60;4.88;;;14.80;99.90;;;;;;4973762;28;20223;-89
2022/08/30 04:32:04;;;;;;;4.40;3.97;;;14.80;99.90;;;;;;4973861;28;20187;-89
2022/08/30 04:34:29;;;;;;;4.57;4.13;;;14.90;99.90;;;;;;4973396;28;20185;-89
2022/08/30 04:36:56;;;;;;;6.07;4.53;;;14.80;99.90;;;;;;4974072;28;20169;-87
2022/08/30 04:39:22;;;;;;;4.75;4.25;;;14.80;99.90;;;;;;4973219;28;20598;-91
2022/08/30 04:41:47;;;;;;;4.38;3.88;;;14.80;99.90;;;;;;4974246;28;20259;-87
2022/08/30 04:44:14;;;;;;;7.90;4.22;;;14.80;99.90;;;;;;4973163;28;20636;-90
2022/08/30 04:46:40;;;;;;;12.52;4.50;;;14.80;99.90;;;;;;4973222;28;20184;-88
2022/08/30 04:49:06;;;;;;;4.05;3.65;;;14.80;99.90;;;;;;4973574;28;20208;-89
2022/08/30 04:51:32;;;;;;;4.85;4.32;;;14.80;99.90;;;;;;4972953;28;20200;-89
2022/08/30 04:53:58;;;;;;;4.97;4.47;;;14.80;99.90;;;;;;4973429;28;20600;-89
2022/08/30 04:56:24;;;;;;;7.75;5.07;;;14.90;99.90;;;;;;4972887;28;20677;-90
2022/08/30 04:58:52;;;;;;;5.75;4.72;;;14.90;99.90;;;;;;4973086;28;20184;-90
2022/08/30 05:01:26;;;;;;;6.22;5.35;;;14.90;99.90;;;;;;4972495;28;20228;-90
2022/08/30 05:03:53;;;;;;;8.65;4.60;;;14.90;99.90;;;;;;4968507;28;20252;-91
2022/08/30 05:06:20;;;;;;;5.75;4.88;;;15.00;99.90;;;;;;4982326;28;20192;-91
2022/08/30 05:08:46;;;;;;;11.25;5.40;;;14.90;99.90;;;;;;4974481;28;20256;-90
2022/08/30 05:11:14;;;;;;;8.98;5.50;;;15.00;99.90;;;;;;4974221;28;20205;-88
2022/08/30 05:13:40;;;;;;;9.32;6.25;;;15.00;99.90;;;;;;4973181;28;20184;-88
2022/08/30 05:16:07;;;;;;;7.60;6.22;;;14.90;99.90;;;;;;4971625;28;20180;-93
2022/08/30 05:18:34;;;;;;;8.30;5.05;;;14.90;99.90;;;;;;4969964;28;20232;-88
2022/08/30 05:21:13;;;;;;;6.82;5.75;;;14.90;99.90;;;;;;4975609;28;20255;-89
2022/08/30 05:23:39;;;;;;;6.53;5.50;;;14.90;99.90;;;;;;4973947;28;20184;-90
2022/08/30 05:26:08;;;;;;;8.65;5.20;;;14.90;99.90;;;;;;4972225;28;20275;-87
2022/08/30 05:28:34;;;;;;;7.32;5.93;;;15.00;99.90;;;;;;4976764;28;20216;-90
2022/08/30 05:31:01;;;;;;;7.65;6.10;;;15.00;99.90;;;;;;4972394;28;20299;-89
2022/08/30 05:33:28;;;;;;;7.45;5.82;;;15.00;99.90;;;;;;4988499;28;20272;-90
2022/08/30 05:35:54;;;;;;;7.75;6.07;;;15.10;99.90;;;;;;4972353;28;20527;-91
2022/08/30 05:38:19;;;;;;;8.43;6.47;;;15.10;99.90;;;;;;4972441;28;20201;-89
2022/08/30 05:40:45;;;;;;;7.80;6.38;;;15.10;99.90;;;;;;4974008;28;20218;-89
2022/08/30 05:43:13;;;;;;;8.85;6.72;;;15.10;99.90;;;;;;4981097;28;20192;-92
2022/08/30 05:45:38;;;;;;;9.10;6.88;;;15.20;99.90;;;;;;4972053;28;20192;-90
2022/08/30 05:48:04;;;;;;;9.23;6.82;;;15.10;99.90;;;;;;4980213;28;20234;-91
2022/08/30 05:50:30;;;;;;;9.32;7.18;;;15.20;99.90;;;;;;4976366;28;20300;-89
2022/08/30 05:52:56;;;;;;;8.88;6.25;;;15.20;99.90;;;;;;4972032;28;20271;-89
2022/08/30 05:55:25;;;;;;;9.35;7.07;;;15.20;99.90;;;;;;4973180;28;20188;-90
2022/08/30 05:57:51;;;;;;;10.48;7.30;;;15.30;99.90;;;;;;4972156;28;20315;-91
2022/08/30 06:00:17;;;;;;;9.85;6.50;;;15.30;99.90;;;;;;4973134;28;20670;-89
2022/08/30 06:02:44;;;;;;;8.07;6.18;;;15.30;99.90;;;;;;4971589;28;20192;-88
2022/08/30 06:05:11;;;;;;;9.80;7.07;;;15.30;99.90;;;;;;4962691;28;20225;-88
2022/08/30 06:07:37;;;;;;;11.07;7.32;;;15.30;99.90;;;;;;4984762;28;20246;-89
2022/08/30 06:10:05;;;;;;;10.23;6.90;;;15.30;99.90;;;;;;4971092;28;20303;-90
2022/08/30 06:12:31;;;;;;;9.75;6.88;;;15.40;99.90;;;;;;4972115;28;20727;-91
2022/08/30 06:14:57;;;;;;;13.45;9.00;;;15.40;99.90;;;;;;4971996;28;20212;-90
2022/08/30 06:17:23;;;;;;;14.18;8.30;;;15.40;99.90;;;;;;4968601;28;20220;-89
2022/08/30 06:19:48;;;;;;;13.88;8.10;;;15.40;99.90;;;;;;4983288;28;20303;-91
2022/08/30 06:22:14;;;;;;;10.90;7.75;;;15.50;99.90;;;;;;4977462;28;20662;-90
2022/08/30 06:24:41;;;;;;;12.52;7.10;;;15.50;99.90;;;;;;4978160;28;20332;-88
2022/08/30 06:27:08;;;;;;;12.20;7.75;;;15.50;99.90;;;;;;4978442;28;20199;-92
2022/08/30 06:29:34;;;;;;;11.00;7.63;;;15.50;99.90;;;;;;4977851;28;20227;-88
2022/08/30 06:32:00;;;;;;;9.80;6.95;;;15.60;99.90;;;;;;4979474;28;20582;-88
2022/08/30 06:34:27;;;;;;;7.95;5.97;;;15.50;99.90;;;;;;4977665;28;20312;-89
2022/08/30 06:36:53;;;;;;;12.00;8.32;;;15.50;99.90;;;;;;4979283;28;20184;-87
2022/08/30 06:39:19;;;;;;;11.98;8.00;;;15.50;99.90;;;;;;4971478;28;20188;-90
2022/08/30 06:44:22;;;;;;;9.98;7.80;;;15.50;99.90;;;;;;4933163;23;20288;-82
2022/08/30 06:46:48;;;;;;;8.45;6.70;;;15.50;99.90;;;;;;4963107;28;20197;-82
2022/08/30 06:49:16;;;;;;;8.85;6.85;;;15.50;99.90;;;;;;4964994;28;20216;-81
2022/08/30 06:51:41;;;;;;;9.73;7.10;;;15.60;99.90;;;;;;4966443;28;20564;-84
2022/08/30 06:54:10;;;;;;;8.95;6.82;;;15.60;99.90;;;;;;4968513;28;20641;-84
2022/08/30 06:56:37;;;;;;;8.45;6.93;;;15.60;99.90;;;;;;4971449;28;20198;-82
2022/08/30 06:59:04;;;;;;;7.90;6.18;;;15.60;99.90;;;;;;4972875;28;20215;-83
2022/08/30 07:01:30;;;;;;;7.25;5.75;;;15.70;99.90;;;;;;4969399;28;20216;-88
2022/08/30 07:03:57;;;;;;;8.15;6.75;;;15.70;99.90;;;;;;4963925;28;20569;-83
2022/08/30 07:06:24;;;;;;;8.02;6.78;;;15.70;99.90;;;;;;4975172;28;20195;-87
2022/08/30 07:08:51;;;;;;;7.28;5.85;;;15.70;99.90;;;;;;4967272;28;20663;-86
2022/08/30 07:11:35;;;;;;;7.93;7.05;;;15.80;99.90;;;;;;4971282;28;20192;-82
2022/08/30 07:14:02;;;;;;;8.32;7.40;;;15.80;99.90;;;;;;4988051;28;20188;-82
2022/08/30 07:16:30;;;;;;;8.32;6.50;;;15.80;99.90;;;;;;4988231;28;20298;-84
2022/08/30 07:18:57;;;;;;;8.65;7.10;;;15.80;99.90;;;;;;4970508;28;20334;-83
2022/08/30 07:21:34;;;;;;;7.97;6.43;;;15.80;99.90;;;;;;4987883;28;20176;-86
2022/08/30 07:24:00;;;;;;;6.47;5.65;;;15.90;99.90;;;;;;4974400;28;20242;-87
2022/08/30 07:26:31;;;;;;;6.60;5.90;;;15.90;99.90;;;;;;4978019;28;20270;-83
2022/08/30 07:28:57;;;;;;;8.02;6.80;;;16.00;99.90;;;;;;4971989;28;20667;-83
2022/08/30 07:31:24;;;;;;;8.43;5.93;;;15.90;99.90;;;;;;4980032;28;20185;-82
2022/08/30 07:33:51;;;;;;;5.75;4.78;;;16.00;99.90;;;;;;4984137;28;20187;-82
2022/08/30 07:36:17;;;;;;;7.00;5.72;;;15.90;99.90;;;;;;4966439;28;20176;-84
2022/08/30 07:38:46;;;;;;;6.40;5.38;;;15.90;99.90;;;;;;4967879;28;20216;-86
2022/08/30 07:41:29;;;;;;;6.45;5.40;;;16.00;99.90;;;;;;4970586;28;20230;-84
2022/08/30 07:43:56;;;;;;;5.80;5.20;;;16.00;99.90;;;;;;4967363;28;20276;-85
2022/08/30 07:46:24;;;;;;;4.95;4.45;;;16.00;99.90;;;;;;4989773;28;21877;-83
2022/08/30 07:48:50;;;;;;;6.90;4.25;;;16.10;99.90;;;;;;4987786;28;20533;-89
2022/08/30 07:51:19;;;;;;;4.55;3.75;;;16.20;99.90;;;;;;4966352;28;20185;-83
2022/08/30 07:53:45;;;;;;;8.25;4.25;;;16.20;99.90;;;;;;4965319;28;20184;-87
2022/08/30 07:56:11;;;;;;;6.72;5.60;;;16.30;99.90;;;;;;4982735;28;20211;-86
2022/08/30 07:58:38;;;;;;;5.35;3.97;;;16.30;99.90;;;;;;4986798;28;20196;-84
2022/08/30 08:01:08;;;;;;;5.53;4.63;;;16.40;99.90;;;;;;4980142;28;20200;-84
2022/08/30 08:03:35;;;;;;;3.88;3.55;;;16.40;99.90;;;;;;4966658;28;20185;-82
2022/08/30 08:06:03;;;;;;;4.68;3.85;;;16.50;99.90;;;;;;4984810;28;20182;-83
2022/08/30 08:08:29;;;;;;;4.80;3.03;;;16.70;99.90;;;;;;4985484;28;20295;-84
2022/08/30 08:10:55;;;;;;;2.90;2.60;;;16.80;99.90;;;;;;4990601;28;20198;-86
2022/08/30 08:13:22;;;;;;;4.30;2.40;;;17.00;99.90;;;;;;4968044;28;20596;-84
2022/08/30 08:15:49;;;;;;;2.38;1.98;;;17.20;99.90;;;;;;4974205;28;20278;-89
2022/08/30 08:18:15;;;;;;;2.63;2.05;;;17.40;99.90;;;;;;4982414;28;20188;-85
2022/08/30 08:20:41;;;;;;;2.67;2.08;;;17.50;99.90;;;;;;4982700;28;20188;-84
2022/08/30 08:23:07;;;;;;;2.05;1.85;;;17.60;99.90;;;;;;4958831;28;20188;-87
2022/08/30 08:25:39;;;;;;;2.10;1.95;;;17.60;99.90;;;;;;4981833;28;20222;-91
2022/08/30 08:28:05;;;;;;;2.00;1.70;;;17.60;99.90;;;;;;4966108;28;20216;-86
2022/08/30 08:30:34;;;;;;;2.67;1.40;;;17.60;99.90;;;;;;4988965;28;20216;-84
2022/08/30 08:33:00;;;;;;;1.55;1.40;;;17.60;99.90;;;;;;4991025;28;20267;-89
2022/08/30 08:35:26;;;;;;;2.35;1.55;;;17.60;99.90;;;;;;4967751;28;20283;-89
2022/08/30 08:37:52;;;;;;;2.53;1.30;;;17.60;99.90;;;;;;4965624;28;20291;-85
2022/08/30 08:40:18;;;;;;;1.40;1.20;;;17.60;99.90;;;;;;4969904;28;20211;-88
2022/08/30 08:43:00;;;;;;;1.35;1.20;;;17.60;99.90;;;;;;4970835;28;20188;-91
2022/08/30 08:45:44;;;;;;;1.90;1.50;;;17.60;99.90;;;;;;4979766;28;20236;-91
2022/08/30 08:48:27;;;;;;;2.50;1.60;;;17.80;99.90;;;;;;4988134;28;20199;-86
2022/08/30 08:54:17;;;;;;;1.42;1.30;;;18.10;99.90;;;;;;4937665;28;20238;-89
2022/08/30 08:56:43;;;;;;;1.73;1.50;;;18.20;99.90;;;;;;4951775;28;20247;-84
2022/08/30 08:59:10;;;;;;;1.73;1.27;;;18.30;99.90;;;;;;4966275;28;20210;-83
2022/08/30 09:01:37;;;;;;;1.88;1.65;;;18.40;99.90;;;;;;4979852;28;20559;-89
2022/08/30 09:04:16;;;;;;;1.40;1.30;;;18.30;99.90;;;;;;4970186;28;20192;-86
2022/08/30 09:06:59;;;;;;;2.28;1.40;;;18.40;99.90;;;;;;4969502;28;20188;-90
2022/08/30 09:09:32;;;;;;;1.40;1.30;;;18.50;99.90;;;;;;4981092;28;20646;-85
2022/08/30 09:11:58;;;;;;;1.30;1.20;;;18.60;99.90;;;;;;4988835;28;20183;-89
2022/08/30 09:14:38;;;;;;;1.60;1.30;;;18.70;99.90;;;;;;4966349;28;20192;-88
2022/08/30 09:17:09;;;;;;;1.55;1.45;;;18.80;99.90;;;;;;4959978;28;20188;-88
2022/08/30 09:19:45;;;;;;;1.77;1.50;;;18.80;99.90;;;;;;4967001;28;20187;-84
2022/08/30 09:22:39;;;;;;;1.35;1.25;;;18.80;99.90;;;;;;4983141;28;20183;-88
2022/08/30 09:25:06;;;;;;;2.85;1.67;;;18.80;99.90;;;;;;4958716;28;20639;-84
2022/08/30 09:27:35;;;;;;;1.52;1.42;;;18.70;99.90;;;;;;4969180;28;20242;-88
2022/08/30 09:30:30;;;;;;;1.50;1.30;;;18.60;99.90;;;;;;4965230;28;20216;-84
2022/08/30 09:33:01;;;;;;;1.52;1.30;;;18.60;99.90;;;;;;4953771;28;20243;-83
2022/08/30 09:35:41;;;;;;;2.38;1.40;;;18.70;99.90;;;;;;4992162;28;20208;-83
2022/08/30 09:38:22;;;;;;;1.65;1.35;;;18.80;99.90;;;;;;4980111;28;20227;-84
2022/08/30 09:41:01;;;;;;;1.75;1.20;;;19.00;99.90;;;;;;4964389;28;20677;-84
2022/08/30 09:43:33;;;;;;;1.60;1.20;;;19.20;99.90;;;;;;4980333;28;20184;-81
2022/08/30 09:46:02;;;;;;;1.25;1.10;;;19.40;99.90;;;;;;4969445;28;20674;-83
2022/08/30 09:48:33;;;;;;;1.52;1.10;;;19.60;99.90;;;;;;4983061;28;20210;-86
2022/08/30 09:51:13;;;;;;;1.98;1.05;;;19.70;99.90;;;;;;4976390;28;20521;-84
2022/08/30 09:53:56;;;;;;;1.83;1.00;;;19.90;99.90;;;;;;4993545;28;20183;-85
2022/08/30 09:56:24;;;;;;;1.13;1.00;;;20.10;99.90;;;;;;4983594;28;20187;-87
2022/08/30 09:59:18;;;;;;;1.27;1.10;;;20.20;99.90;;;;;;4967363;28;20199;-84
2022/08/30 10:02:10;;;;;;;1.25;0.98;;;20.20;99.90;;;;;;4983147;28;20314;-89
2022/08/30 10:05:00;;;;;;;1.10;0.80;;;20.10;99.90;;;;;;4958374;28;20274;-86
2022/08/30 10:07:51;;;;;;;0.80;0.77;;;20.10;99.90;;;;;;4960414;28;20649;-92
2022/08/30 10:10:39;;;;;;;0.80;0.73;;;20.20;99.90;;;;;;4966967;28;20224;-89
2022/08/30 10:13:27;;;;;;;1.92;1.00;;;20.20;99.90;;;;;;4968558;28;20190;-84
2022/08/30 10:16:19;;;;;;;1.10;0.95;;;20.00;99.90;;;;;;4963354;28;20627;-86
2022/08/30 10:18:57;;;;;;;2.25;0.70;;;19.90;99.90;;;;;;4986747;28;20219;-89
2022/08/30 10:21:30;;;;;;;0.65;0.60;;;19.90;99.90;;;;;;4981399;28;20176;-86
2022/08/30 10:24:08;;;;;;;1.13;0.90;;;20.00;99.90;;;;;;4981169;28;20211;-89
2022/08/30 10:26:39;;;;;;;0.80;0.80;;;20.20;99.90;;;;;;4972159;28;20582;-89
2022/08/30 10:29:22;;;;;;;1.45;0.68;;;20.30;99.90;;;;;;4978754;28;20650;-85
2022/08/30 10:31:51;;;;;;;1.00;0.90;;;20.30;99.90;;;;;;4965906;28;20203;-84
2022/08/30 10:34:26;;;;;;;0.98;0.70;;;20.20;99.90;;;;;;4985486;28;20194;-85
2022/08/30 10:37:15;;;;;;;0.95;0.70;;;20.30;99.90;;;;;;4974183;28;20273;-83
2022/08/30 10:39:57;;;;;;;1.20;1.00;;;20.60;99.90;;;;;;4980230;28;20566;-86
2022/08/30 10:42:31;;;;;;;2.15;0.82;;;20.90;99.90;;;;;;4978505;28;20207;-84
2022/08/30 10:45:05;;;;;;;1.60;0.70;;;21.20;99.90;;;;;;4987611;28;20678;-86
2022/08/30 10:48:05;;;;;;;1.15;0.70;;;21.40;99.70;;;;;;4983186;28;20184;-84
2022/08/30 10:50:40;;;;;;;1.00;0.90;;;21.60;98.70;;;;;;4968508;28;20195;-83
2022/08/30 10:53:30;;;;;;;1.35;0.70;;;21.60;99.20;;;;;;4986353;28;20653;-82
2022/08/30 10:56:01;;;;;;;1.08;0.80;;;21.60;99.10;;;;;;4981961;28;20181;-82
2022/08/30 10:58:30;;;;;;;1.00;0.82;;;21.40;99.20;;;;;;4969673;28;20267;-83
2022/08/30 11:01:04;;;;;;;0.70;0.65;;;21.30;98.80;;;;;;4957622;28;20188;-82
2022/08/30 11:03:53;;;;;;;1.60;0.82;;;21.20;98.80;;;;;;4988288;28;20266;-84
2022/08/30 11:06:31;;;;;;;0.93;0.63;;;21.10;99.10;;;;;;4987437;28;20181;-84
2022/08/30 11:09:34;;;;;;;1.15;0.85;;;21.20;98.90;;;;;;4968131;28;20263;-83
2022/08/30 11:12:26;;;;;;;0.73;0.73;;;21.40;99.00;;;;;;4942686;28;20342;-88
2022/08/30 11:14:53;;;;;;;1.02;0.85;;;21.70;98.60;;;;;;4987870;28;20188;-86
2022/08/30 11:17:59;;;;;;;1.20;0.75;;;21.80;97.20;;;;;;4987459;28;20180;-83
2022/08/30 11:20:46;;;;;;;0.75;0.75;;;22.00;97.90;;;;;;4983657;28;20259;-87
2022/08/30 11:23:35;;;;;;;1.38;0.60;;;22.30;97.60;;;;;;4986367;28;20342;-85
2022/08/30 11:26:09;;;;;;;1.40;0.70;;;22.50;96.10;;;;;;4963731;28;20192;-87
2022/08/30 11:28:35;;;;;;;1.63;0.60;;;22.70;96.60;;;;;;4972214;28;20213;-88
2022/08/30 11:31:08;;;;;;;1.33;0.80;;;22.90;95.20;;;;;;4965278;28;20270;-87
2022/08/30 11:33:46;;;;;;;0.82;0.70;;;22.90;95.00;;;;;;4991022;28;20242;-88
2022/08/30 11:36:34;;;;;;;0.68;0.68;;;23.00;95.10;;;;;;4988221;28;20177;-88
2022/08/30 11:39:32;;;;;;;1.08;0.70;;;23.20;94.60;;;;;;4978255;28;20203;-90
2022/08/30 11:42:30;;;;;;;0.70;0.70;;;23.20;94.60;;;;;;4986228;28;20250;-84
2022/08/30 11:45:21;;;;;;;0.63;0.60;;;23.40;93.90;;;;;;4986915;28;20579;-83
2022/08/30 11:47:50;;;;;;;0.95;0.80;;;23.40;94.30;;;;;;4963142;28;20184;-84
2022/08/30 11:50:26;;;;;;;0.73;0.60;;;23.40;93.80;;;;;;4968095;28;20220;-82
2022/08/30 11:53:17;;;;;;;0.98;0.70;;;23.40;94.20;;;;;;4975513;28;20253;-85
2022/08/30 11:56:03;;;;;;;0.68;0.50;;;23.50;94.20;;;;;;4990115;28;20655;-82
2022/08/30 11:58:50;;;;;;;1.48;0.80;;;23.40;93.30;;;;;;4985320;28;20179;-83
2022/08/30 12:01:19;;;;;;;1.38;0.70;;;23.20;93.50;;;;;;4987550;28;20176;-83
2022/08/30 12:03:57;;;;;;;0.70;0.57;;;22.80;93.40;;;;;;4967032;28;20532;-83
2022/08/30 12:06:44;;;;;;;0.60;0.60;;;22.60;94.00;;;;;;4974531;28;20203;-81
2022/08/30 12:09:22;;;;;;;0.80;0.60;;;22.40;94.70;;;;;;4963326;28;20216;-87
2022/08/30 12:11:58;;;;;;;0.82;0.75;;;22.20;94.90;;;;;;4986354;28;20181;-81
2022/08/30 12:14:36;;;;;;;1.05;0.63;;;22.10;94.50;;;;;;4987212;28;20176;-83
2022/08/30 12:20:41;;;;;;;1.23;0.90;;;21.90;95.20;;;;;;4983980;28;20199;-85
2022/08/30 12:23:22;;;;;;;1.52;0.80;;;21.90;95.40;;;;;;4961307;28;20203;-84
2022/08/30 12:25:48;;;;;;;0.60;0.60;;;21.90;95.80;;;;;;4988218;28;20267;-84
2022/08/30 12:28:25;;;;;;;2.38;0.70;;;21.80;95.10;;;;;;4969767;28;20286;-87
2022/08/30 12:30:52;;;;;;;0.80;0.60;;;21.90;95.00;;;;;;4987132;28;20556;-88
2022/08/30 12:33:33;;;;;;;1.05;0.68;;;21.80;94.90;;;;;;4970058;28;20251;-84
2022/08/30 12:36:00;;;;;;;1.25;0.60;;;21.80;95.50;;;;;;4972323;28;20191;-84
2022/08/30 12:38:28;;;;;;;0.52;0.52;;;21.80;96.00;;;;;;4984159;28;20188;-85
2022/08/30 12:41:00;;;;;;;1.42;0.75;;;21.80;96.30;;;;;;4985396;28;20623;-84
2022/08/30 12:43:46;;;;;;;0.93;0.60;;;21.90;96.30;;;;;;4972188;28;20274;-87
2022/08/30 12:46:15;;;;;;;1.02;0.75;;;21.90;95.90;;;;;;4988781;28;20271;-88
2022/08/30 12:48:41;;;;;;;1.98;0.70;;;21.80;95.90;;;;;;4963423;28;20224;-88
2022/08/30 12:51:24;;;;;;;0.73;0.73;;;21.80;96.60;;;;;;4982487;28;20735;-84
2022/08/30 12:53:50;;;;;;;0.85;0.65;;;21.80;96.60;;;;;;4980067;28;20180;-87
2022/08/30 12:56:16;;;;;;;1.70;0.77;;;21.80;95.90;;;;;;4961706;28;20619;-89
2022/08/30 12:58:45;;;;;;;1.02;0.60;;;21.90;96.10;;;;;;4967276;28;20199;-88
2022/08/30 13:01:31;;;;;;;0.75;0.70;;;22.20;95.30;;;;;;4971636;28;20186;-85
2022/08/30 13:04:02;;;;;;;0.70;0.60;;;22.60;93.80;;;;;;4990781;28;20180;-86
2022/08/30 13:06:50;;;;;;;0.80;0.57;;;22.90;93.60;;;;;;4983442;28;20566;-87
2022/08/30 13:09:30;;;;;;;1.85;0.63;;;23.10;93.90;;;;;;4982639;28;20246;-87
2022/08/30 13:11:57;;;;;;;0.80;0.70;;;23.10;92.60;;;;;;4984951;28;20224;-87